createdAt,value
2023-10-05T00:00:42.920Z,9.51
2023-10-05T00:03:09.460Z,9.54
2023-10-05T00:05:36.015Z,9.48
2023-10-05T00:08:02.918Z,9.46
2023-10-05T00:10:30.981Z,9.49
2023-10-05T00:12:57.689Z,9.47
2023-10-05T00:15:24.207Z,9.42
2023-10-05T00:17:50.821Z,9.42
2023-10-05T00:20:17.332Z,9.40
2023-10-05T00:22:44.053Z,9.36
2023-10-05T00:25:10.605Z,9.32
2023-10-05T00:27:38.499Z,9.35
2023-10-05T00:30:06.125Z,9.35
2023-10-05T00:32:32.685Z,9.32
2023-10-05T00:34:59.185Z,9.30
2023-10-05T00:37:25.769Z,9.29
2023-10-05T00:39:52.241Z,9.29
2023-10-05T00:42:18.770Z,9.27
2023-10-05T00:44:46.804Z,9.27
2023-10-05T00:47:13.327Z,9.23
2023-10-05T00:49:41.133Z,9.22
2023-10-05T00:52:07.814Z,9.24
2023-10-05T00:54:35.586Z,9.25
2023-10-05T00:57:02.275Z,9.29
2023-10-05T00:59:29.572Z,9.33
2023-10-05T01:01:57.615Z,9.30
2023-10-05T01:04:25.080Z,9.29
2023-10-05T01:06:51.952Z,9.30
2023-10-05T01:09:18.494Z,9.30
2023-10-05T01:11:45.368Z,9.34
2023-10-05T01:14:12.148Z,9.37
2023-10-05T01:16:39.020Z,9.40
2023-10-05T01:19:07.342Z,9.41
2023-10-05T01:21:34.080Z,9.39
2023-10-05T01:24:01.849Z,9.35
2023-10-05T01:26:28.597Z,9.32
2023-10-05T01:28:55.097Z,9.28
2023-10-05T01:31:21.614Z,9.25
2023-10-05T01:33:48.298Z,9.25
2023-10-05T01:36:15.093Z,9.21
2023-10-05T01:38:41.609Z,9.17
2023-10-05T01:41:09.740Z,9.16
2023-10-05T01:43:36.758Z,9.17
2023-10-05T01:46:03.394Z,9.14
2023-10-05T01:48:29.942Z,9.13
2023-10-05T01:50:57.764Z,9.13
2023-10-05T01:53:24.474Z,9.12
2023-10-05T01:55:51.198Z,9.12
2023-10-05T01:58:19.033Z,9.11
2023-10-05T02:00:45.536Z,9.09
2023-10-05T02:03:12.277Z,9.07
2023-10-05T02:05:39.125Z,9.07
2023-10-05T02:08:07.400Z,9.05
2023-10-05T02:10:33.979Z,9.05
2023-10-05T02:13:00.491Z,9.02
2023-10-05T02:15:28.648Z,9.00
2023-10-05T02:17:56.045Z,9.00
2023-10-05T02:20:22.601Z,9.02
2023-10-05T02:22:49.082Z,8.96
2023-10-05T02:25:15.655Z,8.95
2023-10-05T02:27:42.199Z,8.94
2023-10-05T02:30:09.956Z,8.95
2023-10-05T02:32:37.723Z,8.94
2023-10-05T02:35:04.833Z,8.95
2023-10-05T02:37:31.391Z,8.90
2023-10-05T02:39:57.948Z,8.91
2023-10-05T02:42:24.503Z,8.95
2023-10-05T02:44:50.936Z,8.92
2023-10-05T02:47:17.556Z,8.93
2023-10-05T02:49:45.416Z,8.97
2023-10-05T02:52:12.713Z,8.97
2023-10-05T02:54:39.313Z,8.97
2023-10-05T02:57:08.163Z,9.00
2023-10-05T02:59:34.749Z,9.03
2023-10-05T03:02:01.424Z,9.04
2023-10-05T03:04:28.105Z,9.05
2023-10-05T03:06:56.068Z,9.07
2023-10-05T03:09:22.540Z,9.08
2023-10-05T03:11:49.502Z,9.09
2023-10-05T03:14:16.042Z,9.10
2023-10-05T03:16:43.068Z,9.13
2023-10-05T03:19:09.596Z,9.15
2023-10-05T03:21:36.275Z,9.14
2023-10-05T03:24:04.842Z,9.16
2023-10-05T03:26:31.354Z,9.16
2023-10-05T03:28:59.666Z,9.23
2023-10-05T03:31:26.189Z,9.24
2023-10-05T03:33:53.106Z,9.23
2023-10-05T03:36:19.858Z,9.22
2023-10-05T03:38:46.393Z,9.23
2023-10-05T03:41:14.414Z,9.19
2023-10-05T03:43:40.838Z,9.13
2023-10-05T03:46:07.912Z,9.11
2023-10-05T03:48:34.729Z,9.08
2023-10-05T03:51:01.383Z,9.08
2023-10-05T03:53:27.911Z,9.09
2023-10-05T03:55:54.328Z,9.08
2023-10-05T03:58:22.586Z,9.08
2023-10-05T04:00:49.155Z,9.05
2023-10-05T04:03:15.683Z,9.06
2023-10-05T04:05:42.243Z,9.07
2023-10-05T04:08:09.384Z,9.05
2023-10-05T04:10:36.436Z,9.08
2023-10-05T04:13:02.973Z,9.09
2023-10-05T04:15:30.818Z,9.11
2023-10-05T04:17:57.590Z,9.13
2023-10-05T04:20:24.372Z,9.14
2023-10-05T04:22:51.048Z,9.14
2023-10-05T04:25:18.005Z,9.11
2023-10-05T04:27:45.380Z,9.11
2023-10-05T04:30:13.161Z,9.14
2023-10-05T04:32:41.171Z,9.17
2023-10-05T04:35:09.505Z,9.11
2023-10-05T04:37:35.960Z,9.08
2023-10-05T04:40:02.586Z,9.09
2023-10-05T04:42:29.375Z,9.05
2023-10-05T04:44:55.968Z,9.05
2023-10-05T04:47:23.340Z,9.03
2023-10-05T04:49:51.395Z,8.98
2023-10-05T04:52:17.980Z,8.96
2023-10-05T04:54:44.581Z,8.95
2023-10-05T04:57:11.152Z,8.90
2023-10-05T04:59:37.663Z,8.85
2023-10-05T05:02:07.024Z,8.84
2023-10-05T05:04:33.596Z,8.85
2023-10-05T05:07:03.668Z,8.85
2023-10-05T05:09:31.211Z,8.88
2023-10-05T05:11:57.990Z,8.91
2023-10-05T05:14:24.591Z,8.87
2023-10-05T05:16:51.268Z,8.83
2023-10-05T05:19:18.213Z,8.81
2023-10-05T05:21:44.915Z,8.83
2023-10-05T05:24:15.895Z,8.81
2023-10-05T05:26:42.871Z,8.77
2023-10-05T05:29:09.310Z,8.79
2023-10-05T05:31:36.044Z,8.78
2023-10-05T05:34:02.557Z,8.83
2023-10-05T05:36:29.154Z,8.82
2023-10-05T05:38:55.664Z,8.79
2023-10-05T05:41:23.444Z,8.78
2023-10-05T05:43:49.893Z,8.79
2023-10-05T05:46:16.418Z,8.79
2023-10-05T05:48:43.702Z,8.79
2023-10-05T05:51:10.351Z,8.79
2023-10-05T05:53:37.384Z,8.81
2023-10-05T05:56:04.193Z,8.81
2023-10-05T05:58:32.062Z,8.83
2023-10-05T06:00:58.604Z,8.86
2023-10-05T06:03:25.614Z,8.87
2023-10-05T06:05:55.205Z,8.92
2023-10-05T06:08:21.766Z,8.99
2023-10-05T06:10:48.300Z,9.04
2023-10-05T06:13:15.624Z,9.07
2023-10-05T06:15:43.571Z,9.10
2023-10-05T06:18:10.102Z,9.14
2023-10-05T06:20:37.048Z,9.20
2023-10-05T06:23:03.774Z,9.23
2023-10-05T06:25:30.709Z,9.27
2023-10-05T06:27:57.509Z,9.27
2023-10-05T06:30:24.430Z,9.26
2023-10-05T06:32:52.399Z,9.27
2023-10-05T06:35:19.675Z,9.29
2023-10-05T06:37:49.339Z,9.32
2023-10-05T06:40:19.242Z,9.36
2023-10-05T06:42:45.777Z,9.39
2023-10-05T06:45:13.673Z,9.47
2023-10-05T06:47:40.425Z,9.49
2023-10-05T06:50:10.270Z,9.57
2023-10-05T06:52:37.692Z,9.62
2023-10-05T06:55:04.846Z,9.71
2023-10-05T06:57:31.347Z,9.80
2023-10-05T07:00:00.717Z,9.87
2023-10-05T07:02:27.261Z,9.93
2023-10-05T07:04:54.061Z,9.99
2023-10-05T07:07:22.083Z,10.07
2023-10-05T07:09:48.550Z,10.14
2023-10-05T07:12:15.107Z,10.18
2023-10-05T07:14:42.644Z,10.23
2023-10-05T07:17:09.096Z,10.30
2023-10-05T07:19:35.572Z,10.30
2023-10-05T07:22:02.080Z,10.37
2023-10-05T07:24:30.010Z,10.47
2023-10-05T07:26:56.632Z,10.56
2023-10-05T07:29:30.947Z,10.57
2023-10-05T07:31:58.342Z,10.60
2023-10-05T07:34:24.887Z,10.65
2023-10-05T07:36:51.457Z,10.66
2023-10-05T07:39:18.022Z,10.73
2023-10-05T07:41:46.123Z,10.80
2023-10-05T07:44:12.630Z,10.90
2023-10-05T07:46:39.182Z,10.93
2023-10-05T07:49:05.872Z,10.99
2023-10-05T07:51:32.352Z,11.05
2023-10-05T07:53:58.800Z,11.13
2023-10-05T07:56:25.501Z,11.19
2023-10-05T07:58:53.304Z,11.27
2023-10-05T08:01:19.859Z,11.38
2023-10-05T08:03:46.524Z,11.46
2023-10-05T08:06:13.175Z,11.49
2023-10-05T08:08:39.619Z,11.46
2023-10-05T08:11:06.115Z,11.54
2023-10-05T08:13:32.800Z,11.66
2023-10-05T08:16:00.709Z,11.66
2023-10-05T08:18:27.672Z,11.70
2023-10-05T08:20:54.119Z,11.75
2023-10-05T08:23:20.744Z,12.01
2023-10-05T08:25:47.239Z,12.14
2023-10-05T08:28:13.768Z,12.23
2023-10-05T08:30:40.453Z,12.29
2023-10-05T08:33:08.518Z,12.34
2023-10-05T08:35:34.971Z,12.32
2023-10-05T08:38:01.471Z,12.38
2023-10-05T08:40:27.970Z,12.55
2023-10-05T08:42:56.611Z,12.57
2023-10-05T08:45:24.382Z,12.49
2023-10-05T08:47:52.251Z,12.51
2023-10-05T08:50:20.145Z,12.51
2023-10-05T08:52:47.094Z,12.39
2023-10-05T08:55:15.929Z,12.43
2023-10-05T08:57:42.398Z,12.21
2023-10-05T09:00:09.832Z,12.27
2023-10-05T09:02:36.417Z,12.35
2023-10-05T09:05:02.953Z,12.54
2023-10-05T09:07:32.269Z,12.47
2023-10-05T09:09:58.911Z,12.46
2023-10-05T09:12:26.617Z,12.57
2023-10-05T09:15:04.671Z,12.51
2023-10-05T09:17:31.179Z,12.55
2023-10-05T09:19:57.840Z,12.66
2023-10-05T09:22:24.496Z,12.76
2023-10-05T09:24:55.596Z,12.95
2023-10-05T09:27:22.065Z,13.05
2023-10-05T09:29:49.091Z,13.00
2023-10-05T09:32:23.733Z,13.09
2023-10-05T09:34:50.456Z,13.34
2023-10-05T09:37:20.265Z,13.77
2023-10-05T09:39:47.147Z,14.16
2023-10-05T09:42:17.735Z,14.17
2023-10-05T09:44:54.692Z,14.49
2023-10-05T09:47:24.120Z,14.51
2023-10-05T09:49:51.479Z,14.60
2023-10-05T09:52:19.072Z,14.52
2023-10-05T09:54:46.518Z,14.83
2023-10-05T09:57:13.207Z,14.86
2023-10-05T09:59:41.075Z,14.76
2023-10-05T10:02:11.572Z,14.74
2023-10-05T10:04:38.618Z,14.84
2023-10-05T10:07:09.124Z,14.99
2023-10-05T10:09:35.795Z,14.62
2023-10-05T10:12:02.335Z,14.89
2023-10-05T10:14:29.769Z,15.03
2023-10-05T10:16:57.587Z,15.15
2023-10-05T10:19:26.157Z,15.18
2023-10-05T10:21:54.683Z,15.26
2023-10-05T10:24:21.179Z,15.22
2023-10-05T10:26:50.628Z,15.28
2023-10-05T10:29:17.586Z,15.37
2023-10-05T10:31:45.515Z,15.27
2023-10-05T10:34:20.210Z,15.27
2023-10-05T10:36:49.262Z,15.11
2023-10-05T10:39:16.018Z,15.23
2023-10-05T10:41:57.604Z,15.26
2023-10-05T10:44:24.071Z,15.27
2023-10-05T10:46:50.593Z,15.11
2023-10-05T10:49:18.864Z,14.97
2023-10-05T10:51:46.208Z,15.06
2023-10-05T10:54:19.200Z,15.16
2023-10-05T10:56:45.732Z,15.31
2023-10-05T10:59:12.321Z,15.22
2023-10-05T11:01:42.220Z,15.00
2023-10-05T11:04:12.100Z,15.04
2023-10-05T11:06:41.763Z,15.01
2023-10-05T11:09:08.587Z,15.06
2023-10-05T11:11:37.857Z,14.70
2023-10-05T11:14:04.575Z,14.71
2023-10-05T11:16:34.098Z,14.62
2023-10-05T11:19:00.625Z,14.70
2023-10-05T11:21:27.336Z,14.92
2023-10-05T11:24:02.757Z,14.91
2023-10-05T11:26:37.634Z,14.82
2023-10-05T11:29:15.633Z,14.84
2023-10-05T11:31:52.291Z,14.86
2023-10-05T11:35:16.331Z,15.03
2023-10-05T11:37:16.953Z,14.94
2023-10-05T11:39:46.808Z,14.95
2023-10-05T11:42:13.382Z,14.88
2023-10-05T11:44:40.907Z,14.82
2023-10-05T11:47:07.475Z,14.75
2023-10-05T11:49:34.440Z,14.71
2023-10-05T11:52:01.181Z,14.62
2023-10-05T11:54:28.787Z,14.38
2023-10-05T11:56:56.710Z,14.42
2023-10-05T11:59:26.613Z,14.45
2023-10-05T12:01:53.414Z,14.43
2023-10-05T12:04:20.326Z,14.29
2023-10-05T12:06:46.987Z,14.34
2023-10-05T12:09:13.521Z,14.35
2023-10-05T12:11:40.115Z,14.44
2023-10-05T12:14:08.263Z,14.69
2023-10-05T12:16:34.998Z,14.63
2023-10-05T12:19:02.039Z,14.51
2023-10-05T12:21:28.617Z,14.56
2023-10-05T12:23:55.119Z,14.70
2023-10-05T12:26:21.693Z,14.79
2023-10-05T12:28:48.129Z,14.82
2023-10-05T12:31:16.572Z,14.87
2023-10-05T12:33:43.345Z,14.94
2023-10-05T12:36:09.892Z,14.95
2023-10-05T12:38:36.749Z,15.11
2023-10-05T12:41:03.480Z,15.00
2023-10-05T12:43:29.998Z,15.15
2023-10-05T12:45:56.619Z,15.30
2023-10-05T12:48:24.481Z,15.63
2023-10-05T12:50:50.986Z,15.39
2023-10-05T12:53:17.625Z,15.42
2023-10-05T12:55:44.145Z,15.64
2023-10-05T12:58:11.089Z,15.53
2023-10-05T13:00:37.811Z,15.64
2023-10-05T13:03:04.486Z,15.82
2023-10-05T13:05:35.870Z,15.94
2023-10-05T13:08:03.578Z,16.15
2023-10-05T13:10:30.440Z,16.08
2023-10-05T13:12:57.541Z,16.14
2023-10-05T13:15:24.187Z,16.16
2023-10-05T13:17:50.977Z,16.35
2023-10-05T13:20:17.631Z,16.37
2023-10-05T13:22:45.578Z,16.33
2023-10-05T13:25:14.872Z,16.30
2023-10-05T13:27:41.448Z,16.39
2023-10-05T13:30:08.971Z,16.26
2023-10-05T13:32:35.521Z,16.01
2023-10-05T13:35:02.744Z,15.87
2023-10-05T13:37:29.440Z,15.75
2023-10-05T13:39:57.239Z,15.46
2023-10-05T13:42:23.732Z,15.45
2023-10-05T13:44:50.432Z,15.52
2023-10-05T13:47:17.265Z,15.43
2023-10-05T13:49:43.897Z,15.56
2023-10-05T13:52:10.372Z,15.65
2023-10-05T13:54:36.905Z,15.95
2023-10-05T13:57:04.685Z,16.19
2023-10-05T13:59:31.156Z,16.54
2023-10-05T14:01:57.598Z,16.83
2023-10-05T14:04:24.109Z,16.68
2023-10-05T14:06:50.619Z,16.17
2023-10-05T14:09:17.120Z,15.81
2023-10-05T14:11:43.853Z,15.65
2023-10-05T14:14:12.527Z,15.55
2023-10-05T14:16:39.512Z,15.43
2023-10-05T14:19:06.402Z,15.32
2023-10-05T14:21:33.216Z,15.26
2023-10-05T14:23:59.690Z,15.18
2023-10-05T14:26:26.263Z,15.14
2023-10-05T14:28:53.181Z,15.17
2023-10-05T14:31:23.779Z,15.06
2023-10-05T14:33:50.641Z,15.00
2023-10-05T14:36:17.199Z,14.97
2023-10-05T14:38:43.642Z,15.02
2023-10-05T14:41:10.144Z,15.00
2023-10-05T14:43:36.740Z,15.05
2023-10-05T14:46:03.372Z,15.07
2023-10-05T14:48:31.304Z,15.02
2023-10-05T14:50:59.800Z,15.03
2023-10-05T14:53:26.574Z,14.89
2023-10-05T14:55:53.133Z,14.79
2023-10-05T14:58:20.579Z,14.83
2023-10-05T15:00:47.163Z,14.83
2023-10-05T15:03:13.807Z,14.86
2023-10-05T15:05:41.860Z,14.74
2023-10-05T15:08:08.433Z,14.74
2023-10-05T15:10:35.235Z,14.69
2023-10-05T15:13:01.851Z,14.55
2023-10-05T15:15:28.309Z,14.54
2023-10-05T15:17:54.787Z,14.47
2023-10-05T15:20:21.356Z,14.38
2023-10-05T15:22:50.298Z,14.46
2023-10-05T15:25:16.901Z,14.44
2023-10-05T15:27:43.355Z,14.42
2023-10-05T15:30:11.203Z,14.36
2023-10-05T15:32:38.065Z,14.39
2023-10-05T15:35:06.726Z,14.35
2023-10-05T15:37:33.259Z,14.32
2023-10-05T15:40:01.354Z,14.30
2023-10-05T15:42:27.836Z,14.29
2023-10-05T15:44:54.351Z,14.26
2023-10-05T15:47:20.848Z,14.24
2023-10-05T15:49:47.415Z,14.09
2023-10-05T15:52:14.355Z,14.08
2023-10-05T15:54:40.882Z,14.07
2023-10-05T15:57:09.094Z,14.03
2023-10-05T15:59:35.674Z,14.03
2023-10-05T16:02:02.363Z,14.06
2023-10-05T16:04:29.163Z,14.07
2023-10-05T16:07:05.419Z,14.00
2023-10-05T16:09:31.872Z,13.95
2023-10-05T16:11:58.391Z,13.89
2023-10-05T16:14:27.954Z,13.88
2023-10-05T16:16:54.749Z,13.77
2023-10-05T16:19:21.514Z,13.75
2023-10-05T16:21:48.257Z,13.68
2023-10-05T16:24:14.710Z,13.63
2023-10-05T16:26:41.195Z,13.56
2023-10-05T16:29:07.896Z,13.54
2023-10-05T16:31:36.057Z,13.49
2023-10-05T16:34:02.920Z,13.42
2023-10-05T16:36:29.422Z,13.38
2023-10-05T16:38:55.900Z,13.34
2023-10-05T16:41:22.486Z,13.36
2023-10-05T16:43:49.127Z,13.31
2023-10-05T16:46:15.731Z,13.30
2023-10-05T16:48:43.755Z,13.30
2023-10-05T16:51:10.309Z,13.23
2023-10-05T16:53:36.817Z,13.16
2023-10-05T16:56:03.780Z,13.12
2023-10-05T16:58:30.461Z,13.10
2023-10-05T17:00:56.989Z,13.07
2023-10-05T17:03:23.571Z,13.04
2023-10-05T17:05:51.593Z,13.03
2023-10-05T17:08:18.061Z,12.98
2023-10-05T17:10:44.513Z,12.97
2023-10-05T17:13:11.003Z,12.96
2023-10-05T17:15:37.539Z,12.93
2023-10-05T17:18:04.584Z,12.89
2023-10-05T17:20:31.030Z,12.79
2023-10-05T17:23:02.608Z,12.75
2023-10-05T17:25:29.164Z,12.76
2023-10-05T17:27:55.912Z,12.73
2023-10-05T17:30:22.641Z,12.75
2023-10-05T17:32:49.213Z,12.71
2023-10-05T17:35:15.882Z,12.69
2023-10-05T17:37:42.678Z,12.68
2023-10-05T17:40:13.015Z,12.68
2023-10-05T17:42:39.533Z,12.66
2023-10-05T17:45:07.199Z,12.60
2023-10-05T17:47:35.185Z,12.58
2023-10-05T17:50:01.821Z,12.55
2023-10-05T17:52:28.373Z,12.56
2023-10-05T17:54:55.062Z,12.55
2023-10-05T17:57:22.854Z,12.54
2023-10-05T17:59:49.347Z,12.47
2023-10-05T18:02:16.312Z,12.47
2023-10-05T18:04:42.973Z,12.47
2023-10-05T18:07:09.560Z,12.46
2023-10-05T18:09:36.469Z,12.44
2023-10-05T18:12:03.711Z,12.45
2023-10-05T18:14:31.960Z,12.45
2023-10-05T18:16:58.800Z,12.45
2023-10-05T18:19:25.738Z,12.40
2023-10-05T18:21:52.329Z,12.42
2023-10-05T18:24:18.823Z,12.42
2023-10-05T18:26:45.367Z,12.42
2023-10-05T18:29:12.110Z,12.40
2023-10-05T18:31:40.206Z,12.42
2023-10-05T18:34:06.798Z,12.43
2023-10-05T18:36:33.320Z,12.43
2023-10-05T18:38:59.849Z,12.44
2023-10-05T18:41:26.305Z,12.45
2023-10-05T18:43:54.016Z,12.42
2023-10-05T18:46:20.584Z,12.41
2023-10-05T18:48:48.458Z,12.38
2023-10-05T18:51:15.095Z,12.33
2023-10-05T18:53:41.656Z,12.32
2023-10-05T18:56:08.643Z,12.31
2023-10-05T18:58:36.965Z,12.30
2023-10-05T19:01:04.002Z,12.30
2023-10-05T19:03:30.796Z,12.29
2023-10-05T19:05:58.649Z,12.30
2023-10-05T19:08:25.886Z,12.33
2023-10-05T19:10:52.723Z,12.33
2023-10-05T19:13:19.222Z,12.31
2023-10-05T19:15:45.687Z,12.29
2023-10-05T19:18:12.322Z,12.27
2023-10-05T19:20:39.184Z,12.26
2023-10-05T19:23:07.493Z,12.24
2023-10-05T19:25:34.306Z,12.21
2023-10-05T19:28:01.212Z,12.20
2023-10-05T19:30:27.673Z,12.21
2023-10-05T19:32:54.332Z,12.21
2023-10-05T19:35:21.428Z,12.18
2023-10-05T19:37:47.986Z,12.19
2023-10-05T19:40:15.962Z,12.20
2023-10-05T19:42:42.426Z,12.18
2023-10-05T19:45:11.253Z,12.16
2023-10-05T19:47:37.974Z,12.12
2023-10-05T19:52:53.232Z,12.10
2023-10-05T19:55:21.323Z,12.10
2023-10-05T19:57:47.838Z,12.08
2023-10-05T20:00:14.648Z,12.07
2023-10-05T20:02:41.612Z,12.08
2023-10-05T20:05:08.661Z,12.08
2023-10-05T20:07:35.190Z,12.06
2023-10-05T20:10:01.964Z,12.05
2023-10-05T20:12:29.819Z,12.03
2023-10-05T20:14:56.356Z,12.01
2023-10-05T20:17:22.937Z,12.01
2023-10-05T20:19:52.847Z,11.99
2023-10-05T20:22:19.322Z,11.99
2023-10-05T20:24:47.305Z,12.00
2023-10-05T20:27:14.974Z,12.00
2023-10-05T20:29:43.030Z,12.01
2023-10-05T20:32:09.515Z,12.00
2023-10-05T20:34:36.361Z,11.99
2023-10-05T20:37:02.965Z,11.95
2023-10-05T20:39:31.385Z,11.94
2023-10-05T20:41:58.094Z,11.92
2023-10-05T20:44:24.709Z,11.90
2023-10-05T20:46:52.716Z,11.89
2023-10-05T20:49:19.380Z,11.88
2023-10-05T20:51:46.156Z,11.89
2023-10-05T20:54:12.702Z,11.88
2023-10-05T20:56:39.294Z,11.88
2023-10-05T20:59:05.861Z,11.90
2023-10-05T21:01:32.409Z,11.89
2023-10-05T21:04:00.278Z,11.88
2023-10-05T21:06:26.794Z,11.88
2023-10-05T21:08:53.427Z,11.90
2023-10-05T21:11:22.865Z,11.94
2023-10-05T21:13:49.357Z,11.93
2023-10-05T21:16:17.595Z,11.92
2023-10-05T21:18:44.056Z,11.90
2023-10-05T21:21:11.841Z,11.94
2023-10-05T21:23:38.390Z,11.93
2023-10-05T21:26:04.921Z,11.92
2023-10-05T21:28:31.421Z,11.93
2023-10-05T21:30:57.969Z,11.95
2023-10-05T21:33:24.445Z,11.94
2023-10-05T21:35:51.289Z,11.93
2023-10-05T21:38:19.298Z,11.90
2023-10-05T21:40:45.821Z,11.89
2023-10-05T21:43:12.370Z,11.85
2023-10-05T21:45:39.013Z,11.89
2023-10-05T21:48:06.203Z,11.89
2023-10-05T21:50:33.024Z,11.90
2023-10-05T21:52:59.624Z,11.91
2023-10-05T21:55:27.813Z,11.92
2023-10-05T21:57:54.310Z,11.88
2023-10-05T22:00:21.185Z,11.87
2023-10-05T22:02:47.843Z,11.83
2023-10-05T22:05:14.460Z,11.82
2023-10-05T22:07:41.081Z,11.78
2023-10-05T22:10:08.920Z,11.75
2023-10-05T22:12:36.955Z,11.72
2023-10-05T22:15:03.955Z,11.72
2023-10-05T22:17:30.624Z,11.71
2023-10-05T22:19:57.409Z,11.68
2023-10-05T22:22:23.966Z,11.66
2023-10-05T22:24:50.552Z,11.64
2023-10-05T22:27:17.031Z,11.62
2023-10-05T22:29:44.783Z,11.63
2023-10-05T22:32:11.249Z,11.61
2023-10-05T22:34:37.693Z,11.58
2023-10-05T22:37:04.158Z,11.57
2023-10-05T22:39:30.589Z,11.56
2023-10-05T22:41:57.099Z,11.57
2023-10-05T22:44:23.552Z,11.57
2023-10-05T22:46:54.949Z,11.53
2023-10-05T22:49:21.542Z,11.54
2023-10-05T22:51:48.046Z,11.50
2023-10-05T22:54:15.413Z,11.53
2023-10-05T22:56:45.118Z,11.50
2023-10-05T22:59:11.894Z,11.48
2023-10-05T23:01:38.888Z,11.46
2023-10-05T23:04:07.090Z,11.45
2023-10-05T23:06:33.936Z,11.42
2023-10-05T23:09:00.426Z,11.44
2023-10-05T23:11:26.938Z,11.41
2023-10-05T23:13:53.437Z,11.43
2023-10-05T23:16:19.944Z,11.41
2023-10-05T23:18:46.453Z,11.40
2023-10-05T23:21:14.496Z,11.42
2023-10-05T23:23:40.933Z,11.41
2023-10-05T23:26:07.415Z,11.43
2023-10-05T23:28:34.015Z,11.44
2023-10-05T23:31:00.480Z,11.42
2023-10-05T23:33:27.069Z,11.41
2023-10-05T23:35:53.753Z,11.38
2023-10-05T23:38:21.824Z,11.38
2023-10-05T23:40:48.308Z,11.34
2023-10-05T23:43:14.850Z,11.35
2023-10-05T23:45:41.451Z,11.32
2023-10-05T23:48:07.912Z,11.26
2023-10-05T23:50:34.360Z,11.25
2023-10-05T23:53:00.936Z,11.23
2023-10-05T23:55:28.921Z,11.22
2023-10-05T23:57:55.884Z,11.26
